Time;durP1;ratioP1;P1;durP2;ratioP2;P2;SDS_P1;SDS_P2;PMS_P1;PMS_P2;Temp;Humidity;BMP_temperature;BMP_pressure;BME280_temperature;BME280_humidity;BME280_pressure;Samples;Min_cycle;Max_cycle;Signal;HPM_P1;HPM_P2
2021/01/29 00:00:19;;;;;;;;;;;;;;;14.17;61.11;99841.34;4983109;28;19919;-88
2021/01/29 00:02:45;;;;;;;;;;;;;;;14.40;60.95;99835.94;4984196;28;19950;-88
2021/01/29 00:05:10;;;;;;;;;;;;;;;15.15;58.62;99820.81;4982875;28;19918;-86
2021/01/29 00:07:35;;;;;;;;;;;;;;;14.30;61.57;99832.25;4983160;28;19981;-88
2021/01/29 00:10:01;;;;;;;;;;;;;;;14.98;59.16;99818.63;4982484;28;19953;-90
2021/01/29 00:12:26;;;;;;;;;;;;;;;14.16;61.67;99817.00;4983324;28;19918;-88
2021/01/29 00:14:52;;;;;;;;;;;;;;;14.74;59.97;99805.19;4982228;28;19998;-88
2021/01/29 00:17:17;;;;;;;;;;;;;;;15.35;58.15;99788.28;4982546;28;19922;-89
2021/01/29 00:19:42;;;;;;;;;;;;;;;15.95;55.94;99781.31;4986769;28;19922;-88
2021/01/29 00:22:08;;;;;;;;;;;;;;;15.16;58.23;99778.09;4987287;28;19933;-85
2021/01/29 00:24:33;;;;;;;;;;;;;;;14.67;60.32;99778.47;4987954;28;19906;-86
2021/01/29 00:26:59;;;;;;;;;;;;;;;14.35;61.70;99773.72;4987271;28;19926;-86
2021/01/29 00:29:24;;;;;;;;;;;;;;;14.40;61.06;99769.78;4985563;28;19946;-90
2021/01/29 00:31:50;;;;;;;;;;;;;;;15.15;59.05;99760.00;4985708;28;19977;-87
2021/01/29 00:34:15;;;;;;;;;;;;;;;14.94;59.46;99757.22;4986595;28;19918;-87
2021/01/29 00:36:40;;;;;;;;;;;;;;;14.88;59.81;99750.44;4987228;28;20243;-87
2021/01/29 00:39:05;;;;;;;;;;;;;;;14.86;59.87;99745.13;4985921;28;19940;-86
2021/01/29 00:41:31;;;;;;;;;;;;;;;13.78;63.25;99744.75;4984894;28;19926;-85
2021/01/29 00:43:56;;;;;;;;;;;;;;;14.41;61.88;99734.28;4986503;28;19918;-88
2021/01/29 00:46:21;;;;;;;;;;;;;;;13.90;63.14;99732.03;4999002;28;19925;-86
2021/01/29 00:48:46;;;;;;;;;;;;;;;14.09;63.24;99726.88;4988417;28;19921;-89
2021/01/29 00:51:12;;;;;;;;;;;;;;;14.40;61.80;99721.66;4989199;28;20081;-89
2021/01/29 00:53:37;;;;;;;;;;;;;;;14.12;63.01;99715.75;4988501;28;19918;-86
2021/01/29 00:56:03;;;;;;;;;;;;;;;14.27;62.92;99710.06;5005964;28;19926;-85
2021/01/29 00:58:28;;;;;;;;;;;;;;;14.47;61.79;99697.53;5005238;28;19918;-87
2021/01/29 01:00:53;;;;;;;;;;;;;;;14.33;62.53;99698.69;4988085;28;19918;-88
2021/01/29 01:03:18;;;;;;;;;;;;;;;14.35;62.49;99691.25;4988125;28;19965;-89
2021/01/29 01:05:44;;;;;;;;;;;;;;;14.16;62.95;99684.59;4988528;28;19964;-87
2021/01/29 01:08:10;;;;;;;;;;;;;;;14.38;62.93;99674.66;4988310;28;19918;-89
2021/01/29 01:10:35;;;;;;;;;;;;;;;14.41;62.38;99668.13;4987459;28;19941;-89
2021/01/29 01:13:01;;;;;;;;;;;;;;;14.37;62.60;99667.47;4987897;28;19917;-86
2021/01/29 01:15:26;;;;;;;;;;;;;;;14.47;61.93;99663.03;4989724;28;19918;-86
2021/01/29 01:17:53;;;;;;;;;;;;;;;14.36;62.72;99663.06;4989129;28;19918;-88
2021/01/29 01:20:21;;;;;;;;;;;;;;;14.65;62.21;99648.91;4987780;28;20482;-89
2021/01/29 01:22:47;;;;;;;;;;;;;;;14.81;61.46;99649.34;5004826;28;19949;-87
2021/01/29 01:25:12;;;;;;;;;;;;;;;14.67;61.63;99642.34;4987739;28;19922;-91
2021/01/29 01:27:38;;;;;;;;;;;;;;;14.95;60.87;99636.44;4987738;28;19937;-89
2021/01/29 01:30:04;;;;;;;;;;;;;;;14.62;61.70;99638.28;4986294;28;19944;-89
2021/01/29 01:32:30;;;;;;;;;;;;;;;14.74;62.38;99633.66;5003705;28;19918;-83
2021/01/29 01:34:55;;;;;;;;;;;;;;;14.84;61.12;99626.41;4986468;28;19918;-87
2021/01/29 01:37:21;;;;;;;;;;;;;;;14.11;63.00;99617.97;4987012;28;20005;-86
2021/01/29 01:39:47;;;;;;;;;;;;;;;14.54;62.57;99612.53;4987619;28;19964;-90
2021/01/29 01:42:12;;;;;;;;;;;;;;;14.51;62.21;99607.34;4987095;28;19926;-87
2021/01/29 01:44:39;;;;;;;;;;;;;;;14.61;61.99;99598.44;4987120;28;19918;-89
2021/01/29 01:47:25;;;;;;;;;;;;;;;14.62;62.19;99592.00;4983714;28;19922;-87
2021/01/29 01:49:54;;;;;;;;;;;;;;;14.94;61.05;99582.94;4977084;28;19918;-87
2021/01/29 01:52:25;;;;;;;;;;;;;;;14.38;63.35;99574.00;4985149;28;19919;-87
2021/01/29 01:54:56;;;;;;;;;;;;;;;15.21;60.51;99568.78;4983896;28;19925;-87
2021/01/29 01:57:23;;;;;;;;;;;;;;;14.82;61.58;99555.75;4983689;28;19926;-87
2021/01/29 01:59:52;;;;;;;;;;;;;;;14.77;61.17;99554.47;4984715;28;19918;-85
2021/01/29 02:02:19;;;;;;;;;;;;;;;14.85;61.59;99547.31;4983489;28;19965;-86
2021/01/29 02:04:45;;;;;;;;;;;;;;;14.81;61.93;99535.00;4984117;28;19929;-88
2021/01/29 02:07:16;;;;;;;;;;;;;;;15.06;61.27;99535.56;4984451;28;19918;-89
2021/01/29 02:09:44;;;;;;;;;;;;;;;15.27;60.14;99526.53;4983883;28;19914;-87
2021/01/29 02:12:10;;;;;;;;;;;;;;;15.24;60.85;99520.31;4983775;28;19949;-88
2021/01/29 02:14:36;;;;;;;;;;;;;;;15.06;60.50;99516.50;4984451;28;19925;-88
2021/01/29 02:17:11;;;;;;;;;;;;;;;15.49;59.63;99507.25;4984489;28;19925;-87
2021/01/29 02:19:39;;;;;;;;;;;;;;;15.11;60.98;99497.03;4983669;28;19918;-85
2021/01/29 02:22:07;;;;;;;;;;;;;;;15.01;61.33;99486.09;4981450;28;19926;-89
2021/01/29 02:24:38;;;;;;;;;;;;;;;15.53;59.47;99486.88;4977700;28;19922;-87
2021/01/29 02:27:16;;;;;;;;;;;;;;;15.46;59.40;99480.28;4978776;28;19922;-88
2021/01/29 02:29:59;;;;;;;;;;;;;;;15.62;59.33;99463.38;4979084;28;19941;-87
2021/01/29 02:32:43;;;;;;;;;;;;;;;15.41;59.68;99464.34;4978063;28;19924;-90
2021/01/29 02:35:19;;;;;;;;;;;;;;;15.59;59.03;99453.63;4978459;28;19918;-86
2021/01/29 02:38:00;;;;;;;;;;;;;;;15.57;59.31;99454.78;4978093;28;19976;-86
2021/01/29 02:40:25;;;;;;;;;;;;;;;15.04;61.00;99432.22;4979044;28;19977;-85
2021/01/29 02:43:10;;;;;;;;;;;;;;;14.93;61.51;99428.72;4983431;28;20376;-87
2021/01/29 02:45:46;;;;;;;;;;;;;;;15.10;60.89;99421.75;4986209;28;20007;-88
2021/01/29 02:48:28;;;;;;;;;;;;;;;14.99;61.30;99399.09;4981572;28;20342;-87
2021/01/29 02:50:58;;;;;;;;;;;;;;;15.01;61.74;99393.50;4981614;28;19914;-89
2021/01/29 02:53:30;;;;;;;;;;;;;;;15.40;60.04;99383.59;4981472;28;19964;-86
2021/01/29 02:56:07;;;;;;;;;;;;;;;15.32;59.70;99377.09;4981524;28;20295;-88
2021/01/29 02:58:51;;;;;;;;;;;;;;;15.01;61.31;99371.72;4999354;28;19929;-89
2021/01/29 03:01:26;;;;;;;;;;;;;;;15.62;59.90;99361.66;4982508;28;19924;-89
2021/01/29 03:04:03;;;;;;;;;;;;;;;15.70;59.14;99359.06;4982419;28;19918;-90
2021/01/29 03:06:36;;;;;;;;;;;;;;;15.74;59.24;99346.88;4982104;28;19961;-89
2021/01/29 03:09:07;;;;;;;;;;;;;;;14.95;60.94;99345.03;4981555;28;19917;-87
2021/01/29 03:11:45;;;;;;;;;;;;;;;15.29;60.65;99331.91;4998427;28;20387;-89
2021/01/29 03:14:22;;;;;;;;;;;;;;;15.15;60.59;99330.47;4981161;28;19918;-90
2021/01/29 03:16:50;;;;;;;;;;;;;;;15.35;60.23;99322.31;4980830;28;20371;-90
2021/01/29 03:19:51;;;;;;;;;;;;;;;15.51;59.58;99314.44;4981918;28;19917;-90
2021/01/29 03:22:33;;;;;;;;;;;;;;;15.21;60.25;99313.56;4941976;29;19918;-90
2021/01/29 03:25:13;;;;;;;;;;;;;;;15.08;61.34;99310.22;4974694;28;19941;-87
2021/01/29 03:27:45;;;;;;;;;;;;;;;14.79;62.10;99302.84;4980797;28;20398;-89
2021/01/29 03:30:13;;;;;;;;;;;;;;;14.66;62.29;99291.31;4979848;28;19965;-88
2021/01/29 03:32:39;;;;;;;;;;;;;;;15.13;61.00;99291.63;4981947;28;19992;-88
2021/01/29 03:35:07;;;;;;;;;;;;;;;14.74;62.21;99291.50;4980830;28;19925;-87
2021/01/29 03:37:38;;;;;;;;;;;;;;;15.03;61.88;99283.41;4999339;28;19925;-88
2021/01/29 03:40:05;;;;;;;;;;;;;;;15.02;61.78;99283.53;4998158;28;20425;-87
2021/01/29 03:42:33;;;;;;;;;;;;;;;15.21;60.86;99280.84;4981457;28;19917;-87
2021/01/29 03:45:22;;;;;;;;;;;;;;;14.76;62.62;99280.47;4980908;28;19901;-87
2021/01/29 03:47:52;;;;;;;;;;;;;;;14.93;61.86;99278.94;4998680;28;19939;-89
2021/01/29 03:50:25;;;;;;;;;;;;;;;15.70;59.57;99269.09;4981355;28;19917;-89
2021/01/29 03:52:53;;;;;;;;;;;;;;;15.63;59.50;99274.28;4982725;28;19902;-89
2021/01/29 03:55:37;;;;;;;;;;;;;;;15.02;61.92;99262.63;4985662;28;19965;-89
2021/01/29 03:58:15;;;;;;;;;;;;;;;15.39;60.50;99259.22;4985677;28;19984;-89
2021/01/29 04:00:56;;;;;;;;;;;;;;;15.20;61.10;99246.47;4985189;28;19902;-88
2021/01/29 04:03:33;;;;;;;;;;;;;;;14.35;64.17;99245.06;4985320;28;19917;-89
2021/01/29 04:06:12;;;;;;;;;;;;;;;14.38;64.56;99255.66;5002654;28;19902;-86
2021/01/29 04:08:40;;;;;;;;;;;;;;;14.14;65.28;99251.41;4987422;28;20008;-90
2021/01/29 04:11:07;;;;;;;;;;;;;;;14.92;62.01;99250.00;5003059;28;19906;-87
2021/01/29 04:13:38;;;;;;;;;;;;;;;14.40;64.46;99247.38;4985286;28;19922;-87
2021/01/29 04:16:07;;;;;;;;;;;;;;;14.21;64.62;99253.59;4984805;28;19922;-88
2021/01/29 04:18:35;;;;;;;;;;;;;;;13.86;65.33;99250.25;4984243;28;20037;-89
2021/01/29 04:21:03;;;;;;;;;;;;;;;14.72;62.66;99247.25;4984637;28;19918;-89
2021/01/29 04:23:38;;;;;;;;;;;;;;;14.22;63.28;99244.44;4984448;28;19918;-87
2021/01/29 04:26:08;;;;;;;;;;;;;;;15.28;60.27;99236.69;4982238;28;19972;-88
2021/01/29 04:28:36;;;;;;;;;;;;;;;14.50;62.08;99235.53;4984684;28;19918;-90
2021/01/29 04:31:03;;;;;;;;;;;;;;;14.88;60.03;99231.19;5002168;28;20387;-88
2021/01/29 04:33:33;;;;;;;;;;;;;;;13.98;62.94;99229.31;4984061;28;19906;-89
2021/01/29 04:36:00;;;;;;;;;;;;;;;14.48;62.16;99215.75;4984954;28;20056;-88
2021/01/29 04:38:31;;;;;;;;;;;;;;;13.89;63.21;99217.38;4984363;28;19925;-88
2021/01/29 04:41:02;;;;;;;;;;;;;;;13.53;64.51;99224.16;5001043;28;20322;-89
2021/01/29 04:43:27;;;;;;;;;;;;;;;13.81;64.02;99228.91;4983148;28;19969;-90
2021/01/29 04:46:25;;;;;;;;;;;;;;;13.97;63.29;99227.56;4981128;28;19922;-90
2021/01/29 04:48:55;;;;;;;;;;;;;;;14.49;61.88;99225.66;4970542;28;19941;-88
2021/01/29 04:51:27;;;;;;;;;;;;;;;14.03;63.26;99224.31;4979948;28;19929;-89
2021/01/29 04:54:04;;;;;;;;;;;;;;;13.87;63.66;99216.63;4980561;28;19918;-91
2021/01/29 04:56:54;;;;;;;;;;;;;;;13.99;62.71;99217.41;4980646;28;19972;-90
2021/01/29 04:59:38;;;;;;;;;;;;;;;13.92;63.78;99221.66;4980718;28;19973;-87
2021/01/29 05:02:24;;;;;;;;;;;;;;;14.00;63.40;99225.44;4982469;28;20017;-89
2021/01/29 05:05:05;;;;;;;;;;;;;;;14.39;61.88;99223.88;4980374;28;19918;-88
2021/01/29 05:07:30;;;;;;;;;;;;;;;13.57;64.63;99222.88;4981520;28;19929;-89
2021/01/29 05:09:56;;;;;;;;;;;;;;;13.84;63.10;99219.63;4982774;28;20001;-90
2021/01/29 05:12:24;;;;;;;;;;;;;;;13.92;62.84;99222.53;4981258;28;19925;-87
2021/01/29 05:14:49;;;;;;;;;;;;;;;13.41;64.23;99216.06;4979868;28;19922;-89
2021/01/29 05:17:29;;;;;;;;;;;;;;;14.28;61.96;99225.72;4980448;28;19922;-89
2021/01/29 05:19:58;;;;;;;;;;;;;;;13.65;63.67;99221.22;4981015;28;19988;-87
2021/01/29 05:22:43;;;;;;;;;;;;;;;13.88;62.41;99218.34;4980705;28;19929;-88
2021/01/29 05:25:08;;;;;;;;;;;;;;;14.12;61.96;99223.50;4973300;28;19925;-88
2021/01/29 05:27:52;;;;;;;;;;;;;;;14.10;62.18;99224.63;4980261;28;19922;-88
2021/01/29 05:30:36;;;;;;;;;;;;;;;13.79;63.00;99232.75;4980391;28;19923;-90
2021/01/29 05:33:20;;;;;;;;;;;;;;;13.71;63.00;99233.44;4980296;28;19922;-88
2021/01/29 05:35:53;;;;;;;;;;;;;;;14.19;61.62;99231.94;4979540;28;19973;-88
2021/01/29 05:38:37;;;;;;;;;;;;;;;13.75;62.98;99237.59;4980333;28;19962;-83
2021/01/29 05:41:21;;;;;;;;;;;;;;;13.94;63.01;99238.72;4976814;28;19929;-83
2021/01/29 05:44:05;;;;;;;;;;;;;;;13.61;64.06;99235.22;4977536;28;20368;-82
2021/01/29 05:46:30;;;;;;;;;;;;;;;13.84;62.80;99246.78;4977406;28;19922;-83
2021/01/29 05:49:10;;;;;;;;;;;;;;;13.70;63.56;99234.41;4978189;28;19961;-84
2021/01/29 05:51:55;;;;;;;;;;;;;;;13.91;63.12;99247.13;4976352;28;19918;-83
2021/01/29 05:54:39;;;;;;;;;;;;;;;13.64;63.60;99246.66;4979320;28;20402;-84
2021/01/29 05:57:30;;;;;;;;;;;;;;;13.90;62.60;99248.13;4980420;28;20430;-87
2021/01/29 05:59:55;;;;;;;;;;;;;;;13.97;61.75;99247.44;4978557;28;19972;-84
2021/01/29 06:02:40;;;;;;;;;;;;;;;13.76;63.52;99246.63;4978040;28;19902;-86
2021/01/29 06:05:08;;;;;;;;;;;;;;;14.09;62.38;99239.22;4977543;28;19918;-84
2021/01/29 06:07:37;;;;;;;;;;;;;;;14.03;62.02;99246.06;4976395;28;19926;-85
2021/01/29 06:10:02;;;;;;;;;;;;;;;13.75;63.81;99237.59;4978705;28;19953;-88
2021/01/29 06:12:37;;;;;;;;;;;;;;;14.26;62.00;99237.72;4978513;28;19926;-86
2021/01/29 06:15:10;;;;;;;;;;;;;;;13.73;63.34;99238.72;4978195;28;19918;-85
2021/01/29 06:17:47;;;;;;;;;;;;;;;13.99;62.78;99240.03;4977994;28;19918;-85
2021/01/29 06:20:28;;;;;;;;;;;;;;;14.74;60.00;99242.50;4978069;28;19969;-85
2021/01/29 06:23:02;;;;;;;;;;;;;;;14.16;62.20;99234.94;4978813;28;19976;-87
2021/01/29 06:25:33;;;;;;;;;;;;;;;14.62;61.31;99241.75;4978156;28;20009;-88
2021/01/29 06:28:08;;;;;;;;;;;;;;;13.86;63.56;99233.06;4978124;28;19914;-83
2021/01/29 06:30:36;;;;;;;;;;;;;;;13.41;65.76;99245.94;4978374;28;19929;-85
2021/01/29 06:33:14;;;;;;;;;;;;;;;13.92;63.61;99236.13;4978191;28;20467;-85
2021/01/29 06:35:42;;;;;;;;;;;;;;;13.21;65.63;99241.28;4978106;28;19973;-85
2021/01/29 06:38:28;;;;;;;;;;;;;;;13.27;66.40;99240.75;4977858;28;19957;-86
2021/01/29 06:40:53;;;;;;;;;;;;;;;13.67;64.08;99236.53;4979695;28;19965;-86
2021/01/29 06:43:34;;;;;;;;;;;;;;;13.40;65.45;99255.06;4978141;28;19919;-85
2021/01/29 06:46:18;;;;;;;;;;;;;;;13.13;66.97;99258.22;4977842;28;19938;-86
2021/01/29 06:48:53;;;;;;;;;;;;;;;13.06;66.70;99257.88;4978277;28;19922;-87
2021/01/29 06:51:48;;;;;;;;;;;;;;;13.09;66.49;99268.50;4978701;28;20016;-85
2021/01/29 06:54:13;;;;;;;;;;;;;;;13.39;65.70;99275.09;4955904;28;19981;-86
2021/01/29 06:56:57;;;;;;;;;;;;;;;13.04;66.32;99264.44;4977763;28;19918;-86
2021/01/29 06:59:22;;;;;;;;;;;;;;;13.30;65.57;99278.56;4978877;28;19918;-84
2021/01/29 07:01:50;;;;;;;;;;;;;;;12.90;67.53;99263.72;5010276;28;19925;-86
2021/01/29 07:04:15;;;;;;;;;;;;;;;12.97;67.42;99280.38;4978663;28;20363;-85
2021/01/29 07:06:46;;;;;;;;;;;;;;;13.05;67.37;99287.88;5010032;28;19926;-83
2021/01/29 07:09:18;;;;;;;;;;;;;;;12.81;67.63;99290.78;4977652;28;19926;-82
2021/01/29 07:11:49;;;;;;;;;;;;;;;12.80;67.28;99300.75;4977721;28;19914;-84
2021/01/29 07:14:18;;;;;;;;;;;;;;;12.74;67.31;99290.38;4976523;28;19960;-85
2021/01/29 07:17:02;;;;;;;;;;;;;;;13.12;66.65;99289.97;4975584;28;19922;-85
2021/01/29 07:19:27;;;;;;;;;;;;;;;12.77;66.70;99287.44;4988307;28;19922;-83
2021/01/29 07:22:01;;;;;;;;;;;;;;;12.83;66.82;99299.63;5013367;28;19933;-84
2021/01/29 07:24:42;;;;;;;;;;;;;;;13.05;66.15;99294.16;5013826;28;19993;-83
2021/01/29 07:27:07;;;;;;;;;;;;;;;12.78;66.36;99302.72;4980834;28;19994;-85
2021/01/29 07:29:53;;;;;;;;;;;;;;;13.06;65.62;99314.06;4976025;28;20375;-83
2021/01/29 07:32:18;;;;;;;;;;;;;;;13.23;64.65;99323.50;4957394;28;19925;-90
2021/01/29 07:34:46;;;;;;;;;;;;;;;13.14;64.51;99332.41;4979229;28;19918;-86
2021/01/29 07:37:32;;;;;;;;;;;;;;;13.09;64.75;99336.38;4989614;28;20395;-82
2021/01/29 07:40:09;;;;;;;;;;;;;;;13.28;64.41;99341.13;4995137;28;19942;-80
2021/01/29 07:42:53;;;;;;;;;;;;;;;13.15;64.87;99342.28;4989058;28;19945;-84
2021/01/29 07:45:37;;;;;;;;;;;;;;;13.23;64.47;99350.66;4976934;28;20008;-84
2021/01/29 07:48:05;;;;;;;;;;;;;;;12.99;64.75;99358.97;4984408;28;19961;-86
2021/01/29 07:50:46;;;;;;;;;;;;;;;13.09;64.24;99355.38;4973151;28;19962;-83
2021/01/29 07:53:28;;;;;;;;;;;;;;;12.86;65.24;99367.22;4959860;28;19985;-84
2021/01/29 07:56:08;;;;;;;;;;;;;;;13.64;62.00;99365.38;4959211;29;19922;-91
2021/01/29 07:58:48;;;;;;;;;;;;;;;13.03;64.13;99374.88;4960643;29;20013;-90
2021/01/29 08:01:16;;;;;;;;;;;;;;;13.15;63.98;99370.31;4975426;28;19923;-90
2021/01/29 08:04:00;;;;;;;;;;;;;;;13.15;63.57;99385.72;4977263;28;20383;-91
2021/01/29 08:07:06;;;;;;;;;;;;;;;12.68;64.99;99388.56;4975886;28;19955;-91
2021/01/29 08:09:35;;;;;;;;;;;;;;;12.97;64.65;99388.97;4962551;28;19918;-91
2021/01/29 08:12:03;;;;;;;;;;;;;;;12.67;65.15;99393.16;4946684;28;19922;-90
2021/01/29 08:14:48;;;;;;;;;;;;;;;12.26;66.67;99408.13;4959716;29;19972;-92
2021/01/29 08:20:20;;;;;;;;;;;;;;;12.67;65.58;99414.84;4961685;28;19918;-89
2021/01/29 08:22:55;;;;;;;;;;;;;;;12.84;64.68;99423.50;4975862;28;20008;-88
2021/01/29 08:25:41;;;;;;;;;;;;;;;12.64;64.50;99415.09;4976963;28;19919;-88
2021/01/29 08:28:06;;;;;;;;;;;;;;;12.91;63.98;99422.03;4976408;28;19919;-87
2021/01/29 08:30:37;;;;;;;;;;;;;;;12.67;64.68;99419.44;4976062;28;19957;-90
2021/01/29 08:33:18;;;;;;;;;;;;;;;12.41;64.13;99416.91;4987942;28;19923;-83
2021/01/29 08:35:53;;;;;;;;;;;;;;;12.85;63.87;99419.81;4977291;28;19918;-86
2021/01/29 08:38:36;;;;;;;;;;;;;;;12.30;65.17;99419.59;4975831;28;19958;-85
2021/01/29 08:41:04;;;;;;;;;;;;;;;12.69;63.56;99417.44;4978853;28;19918;-84
2021/01/29 08:43:48;;;;;;;;;;;;;;;12.52;63.98;99425.06;4977970;28;20036;-85
2021/01/29 08:46:13;;;;;;;;;;;;;;;12.69;62.95;99433.72;4978215;28;19922;-83
2021/01/29 08:49:02;;;;;;;;;;;;;;;12.67;63.30;99427.56;4980429;28;19918;-84
2021/01/29 08:51:51;;;;;;;;;;;;;;;12.47;64.00;99423.69;4978530;28;19925;-89
2021/01/29 08:54:35;;;;;;;;;;;;;;;12.46;64.09;99438.25;4959787;28;19969;-85
2021/01/29 08:57:09;;;;;;;;;;;;;;;13.33;61.60;99438.53;4979182;28;19922;-85
2021/01/29 08:59:38;;;;;;;;;;;;;;;12.97;62.15;99437.81;4979514;28;19922;-85
2021/01/29 09:02:09;;;;;;;;;;;;;;;13.00;61.68;99448.44;4979782;28;19928;-86
2021/01/29 09:04:50;;;;;;;;;;;;;;;13.52;60.46;99458.78;4979038;28;19906;-86
2021/01/29 09:07:33;;;;;;;;;;;;;;;12.97;61.91;99464.97;4981301;28;20372;-86
2021/01/29 09:10:21;;;;;;;;;;;;;;;13.13;61.84;99467.28;4979131;28;19918;-86
2021/01/29 09:12:55;;;;;;;;;;;;;;;12.68;62.70;99459.13;4961794;28;19941;-86
2021/01/29 09:15:50;;;;;;;;;;;;;;;12.48;63.63;99472.38;4979305;28;19918;-87
2021/01/29 09:18:25;;;;;;;;;;;;;;;12.75;63.62;99465.78;4961589;28;19966;-86
2021/01/29 09:21:09;;;;;;;;;;;;;;;12.88;62.57;99455.69;4979917;28;20008;-87
2021/01/29 09:23:40;;;;;;;;;;;;;;;13.12;61.98;99474.59;4979462;28;19969;-87
2021/01/29 09:26:22;;;;;;;;;;;;;;;13.00;62.15;99455.69;4979408;28;19918;-86
2021/01/29 09:28:54;;;;;;;;;;;;;;;13.16;62.85;99471.63;4976027;28;20372;-88
2021/01/29 09:31:30;;;;;;;;;;;;;;;13.62;61.19;99476.06;4979840;28;19918;-86
2021/01/29 09:34:08;;;;;;;;;;;;;;;13.16;61.93;99480.63;4979258;28;19918;-87
2021/01/29 09:36:54;;;;;;;;;;;;;;;13.12;61.97;99473.75;4980981;28;19934;-87
2021/01/29 09:39:24;;;;;;;;;;;;;;;13.65;60.60;99482.09;4978805;28;19914;-86
2021/01/29 09:42:05;;;;;;;;;;;;;;;13.93;59.55;99484.38;4979025;28;19922;-84
2021/01/29 09:44:33;;;;;;;;;;;;;;;13.56;61.25;99482.88;4977810;28;19925;-85
2021/01/29 09:47:00;;;;;;;;;;;;;;;13.80;60.16;99490.84;4977564;28;20037;-85
2021/01/29 09:49:28;;;;;;;;;;;;;;;14.08;58.67;99477.66;4978231;28;19918;-85
2021/01/29 09:51:59;;;;;;;;;;;;;;;13.71;60.51;99499.75;4978134;28;19926;-84
2021/01/29 09:54:43;;;;;;;;;;;;;;;13.77;59.97;99501.97;4980051;28;19918;-87
2021/01/29 09:57:17;;;;;;;;;;;;;;;13.82;60.54;99498.88;4978582;28;19924;-85
2021/01/29 09:59:48;;;;;;;;;;;;;;;13.94;59.72;99503.28;4976773;28;19929;-85
2021/01/29 10:02:43;;;;;;;;;;;;;;;13.83;60.04;99498.75;4977227;28;19946;-85
2021/01/29 10:05:24;;;;;;;;;;;;;;;13.39;62.03;99500.56;4969945;28;20571;-82
2021/01/29 10:08:01;;;;;;;;;;;;;;;14.25;59.04;99508.88;4979128;28;19926;-86
2021/01/29 10:10:42;;;;;;;;;;;;;;;14.39;58.53;99525.88;4978528;28;19918;-85
2021/01/29 10:13:23;;;;;;;;;;;;;;;14.51;58.24;99506.66;4979669;28;20529;-86
2021/01/29 10:15:56;;;;;;;;;;;;;;;14.16;59.37;99518.69;4978759;28;19918;-87
2021/01/29 10:18:23;;;;;;;;;;;;;;;14.56;57.71;99508.97;4962324;28;19922;-86
2021/01/29 10:20:51;;;;;;;;;;;;;;;14.08;59.09;99509.44;4977958;28;20284;-85
2021/01/29 10:23:23;;;;;;;;;;;;;;;14.44;58.15;99513.63;4978407;28;19929;-88
2021/01/29 10:25:48;;;;;;;;;;;;;;;14.22;58.84;99520.03;4979239;28;19914;-88
2021/01/29 10:28:19;;;;;;;;;;;;;;;13.98;59.33;99523.81;4979113;28;19918;-87
2021/01/29 10:30:48;;;;;;;;;;;;;;;14.62;57.72;99516.66;4978486;28;19964;-86
2021/01/29 10:33:30;;;;;;;;;;;;;;;14.51;57.42;99517.53;4978735;28;20375;-88
2021/01/29 10:36:04;;;;;;;;;;;;;;;14.49;57.95;99514.09;4978992;28;19917;-85
2021/01/29 10:38:37;;;;;;;;;;;;;;;14.30;58.74;99514.78;4976425;28;20372;-86
2021/01/29 10:41:06;;;;;;;;;;;;;;;14.16;58.59;99524.13;4987638;28;19930;-84
2021/01/29 10:43:34;;;;;;;;;;;;;;;14.42;57.77;99509.28;4999173;28;20008;-84
2021/01/29 10:46:06;;;;;;;;;;;;;;;14.05;58.93;99526.84;4995329;28;20403;-88
2021/01/29 10:48:43;;;;;;;;;;;;;;;14.36;58.61;99522.44;4978957;28;20020;-86
2021/01/29 10:51:20;;;;;;;;;;;;;;;13.88;58.92;99520.13;4978210;28;19918;-87
2021/01/29 10:53:45;;;;;;;;;;;;;;;14.57;57.11;99532.50;4980329;28;19925;-87
2021/01/29 10:56:20;;;;;;;;;;;;;;;14.99;56.17;99526.22;4981391;28;20410;-89
2021/01/29 10:58:48;;;;;;;;;;;;;;;14.18;58.55;99526.72;4994283;28;19922;-85
2021/01/29 11:01:19;;;;;;;;;;;;;;;14.12;58.06;99521.78;4998045;28;19910;-85
2021/01/29 11:04:06;;;;;;;;;;;;;;;14.36;57.29;99533.31;4983758;28;19945;-87
2021/01/29 11:06:42;;;;;;;;;;;;;;;14.20;57.63;99529.31;4979624;28;19919;-86
2021/01/29 11:09:15;;;;;;;;;;;;;;;13.49;59.68;99546.00;4980295;28;19922;-86
2021/01/29 11:11:43;;;;;;;;;;;;;;;14.82;56.30;99531.25;4979446;28;19918;-87
2021/01/29 11:14:14;;;;;;;;;;;;;;;14.67;56.41;99536.19;4979768;28;19922;-88
2021/01/29 11:16:47;;;;;;;;;;;;;;;12.75;62.00;99530.94;4981318;28;19925;-85
2021/01/29 11:19:17;;;;;;;;;;;;;;;14.12;58.85;99538.97;4978795;28;19945;-88
2021/01/29 11:21:51;;;;;;;;;;;;;;;13.96;58.23;99544.78;4978475;28;19970;-86
2021/01/29 11:24:25;;;;;;;;;;;;;;;14.52;57.38;99553.78;4979457;28;19956;-90
2021/01/29 11:27:10;;;;;;;;;;;;;;;14.31;58.56;99548.28;4976924;28;19961;-88
2021/01/29 11:29:41;;;;;;;;;;;;;;;14.10;57.58;99551.84;4976850;28;19918;-86
2021/01/29 11:32:25;;;;;;;;;;;;;;;14.18;57.91;99551.19;4978087;28;19918;-85
2021/01/29 11:34:58;;;;;;;;;;;;;;;14.82;56.49;99569.38;4983360;28;19958;-89
2021/01/29 11:37:46;;;;;;;;;;;;;;;14.79;56.67;99553.31;4956673;29;19906;-87
2021/01/29 11:40:18;;;;;;;;;;;;;;;14.47;57.33;99558.75;4966538;28;19937;-86
2021/01/29 11:42:57;;;;;;;;;;;;;;;14.50;57.21;99558.50;4995846;28;19921;-85
2021/01/29 11:45:25;;;;;;;;;;;;;;;14.96;56.13;99564.59;4986338;28;20375;-87
2021/01/29 11:47:50;;;;;;;;;;;;;;;14.36;56.46;99556.94;4978950;28;19906;-84
2021/01/29 11:50:39;;;;;;;;;;;;;;;15.46;54.17;99559.31;4993563;28;19976;-84
2021/01/29 11:53:04;;;;;;;;;;;;;;;14.71;56.02;99544.94;4987235;28;19928;-87
2021/01/29 11:55:32;;;;;;;;;;;;;;;14.25;58.22;99552.41;4974824;28;19922;-85
2021/01/29 11:58:21;;;;;;;;;;;;;;;15.38;54.04;99549.09;4974689;28;19925;-88
2021/01/29 12:00:51;;;;;;;;;;;;;;;14.42;56.65;99541.94;4979029;28;20375;-86
2021/01/29 12:03:21;;;;;;;;;;;;;;;14.32;57.64;99560.91;4979201;28;19941;-85
2021/01/29 12:05:56;;;;;;;;;;;;;;;14.16;58.04;99545.88;4980102;28;19922;-89
2021/01/29 12:08:28;;;;;;;;;;;;;;;14.10;58.22;99551.84;4979514;28;20037;-89
2021/01/29 12:10:56;;;;;;;;;;;;;;;14.41;56.92;99551.13;4978898;28;19922;-84
2021/01/29 12:13:22;;;;;;;;;;;;;;;13.78;59.19;99544.50;4978164;28;19933;-84
2021/01/29 12:15:58;;;;;;;;;;;;;;;14.38;57.18;99549.50;5000028;28;20290;-86
2021/01/29 12:18:25;;;;;;;;;;;;;;;14.37;57.88;99545.06;4982745;28;19926;-86
2021/01/29 12:21:04;;;;;;;;;;;;;;;14.23;59.00;99553.53;5000283;28;19918;-84
2021/01/29 12:23:39;;;;;;;;;;;;;;;13.90;59.18;99545.31;4982140;28;20402;-86
2021/01/29 12:26:05;;;;;;;;;;;;;;;14.09;59.01;99541.94;4980878;28;19972;-84
2021/01/29 12:28:36;;;;;;;;;;;;;;;13.76;60.59;99548.31;5000934;28;20375;-85
2021/01/29 12:31:13;;;;;;;;;;;;;;;13.74;59.63;99545.72;4983377;28;19988;-88
2021/01/29 12:33:48;;;;;;;;;;;;;;;13.67;60.15;99546.34;5006600;28;19940;-86
2021/01/29 12:36:16;;;;;;;;;;;;;;;14.19;59.41;99547.47;4982576;28;20012;-85
2021/01/29 12:38:51;;;;;;;;;;;;;;;14.33;57.90;99547.19;5001560;28;19968;-89
2021/01/29 12:41:35;;;;;;;;;;;;;;;14.24;57.82;99552.53;5001627;28;20306;-91
2021/01/29 12:44:19;;;;;;;;;;;;;;;14.17;58.14;99555.75;4983626;28;19922;-87
2021/01/29 12:46:50;;;;;;;;;;;;;;;14.48;57.52;99555.91;4984953;28;19922;-89
2021/01/29 12:49:19;;;;;;;;;;;;;;;15.38;55.20;99548.22;4985095;28;19917;-84
2021/01/29 12:51:44;;;;;;;;;;;;;;;14.79;56.91;99547.00;4984461;28;20358;-83
2021/01/29 12:54:17;;;;;;;;;;;;;;;14.47;57.65;99545.16;4984362;28;19956;-84
2021/01/29 12:56:47;;;;;;;;;;;;;;;14.53;57.19;99547.34;4985828;28;20375;-85
2021/01/29 12:59:22;;;;;;;;;;;;;;;14.27;57.66;99541.41;4983496;28;19924;-87
2021/01/29 13:01:56;;;;;;;;;;;;;;;14.45;57.61;99548.00;5001686;28;19918;-86
2021/01/29 13:04:30;;;;;;;;;;;;;;;14.81;56.82;99545.00;4984871;28;19972;-89
2021/01/29 13:07:22;;;;;;;;;;;;;;;14.06;59.27;99539.47;4984982;28;19926;-87
2021/01/29 13:09:50;;;;;;;;;;;;;;;14.63;57.13;99548.34;4981708;28;19914;-87
2021/01/29 13:12:33;;;;;;;;;;;;;;;14.50;57.27;99545.75;4999107;28;20379;-88
2021/01/29 13:14:58;;;;;;;;;;;;;;;14.44;56.85;99551.72;5000054;28;19969;-86
2021/01/29 13:17:35;;;;;;;;;;;;;;;14.37;57.39;99547.78;4999509;28;19918;-84
2021/01/29 13:20:03;;;;;;;;;;;;;;;14.49;56.90;99540.44;4982006;28;19918;-86
2021/01/29 13:22:35;;;;;;;;;;;;;;;13.98;57.59;99547.41;4997867;28;20425;-85